Main page
METAR-TAF:

METAR-TAF

Airports :

Parnaíba-Prefeito Dr. João Silva Filho International Airport

Parnaíba, Piauí, Brazil

latitude: 02-55S, longitude: 041-45W, elevation: 5 m

Current weather observation

The report was made 31 minutes ago, at 18:00 UTC
Wind 13 kt from the East/Northeast
Temperature 32°C
Humidity 63%
Pressure 1008 hPa
Visibility 10 km or more
Few clouds at a height of 2000 ft

METAR: SBPB 251800Z 06013KT 9999 FEW020 32/24 Q1008

Time: 15:31 (18:31 UTC)

Forecast

The report was made 2 hours and 31 minutes ago, at 16:00 UTC
Forecast valid from 25 at 18 UTC to 26 at 06 UTC
Wind 13 kt from the Northeast
Visibility 10 km or more
Scattered clouds at a height of 2000 ft

TAF: SBPB 251600Z 2518/2606 05013KT 9999 SCT020 TX31/2518Z TN26/2606Z RMK PEH

Weather observations and forecasts of more than 4000 airports (METAR and TAF reports).

The available stations are represented by yellow and red dots on the map.

Hover mouse over dot to see the name of the station.

Then click to see weather observations and forecasts.

To change the map : click on the green buttons with a black cross to zoom in, on the green button with a dash to zoom out, or on the green arrows for adjacent maps.


METAR-TAF: